Time,TemperatureF,DewpointF,PressureIn,WindDirection,WindDirectionDegrees,WindSpeedMPH,WindSpeedGustMPH,Humidity,HourlyPrecipIn,Conditions,Clouds,dailyrainin,SoftwareType,DateUTC
2013-08-21 00:09:00,76.9,74.7,30.11,West,281,0.0,0.0,93,0.00,,,0.00,Weather View 32 v70,2013-08-21 04:09:00,
2013-08-21 00:19:00,76.6,74.1,30.11,West,281,0.0,0.0,92,0.00,,,0.00,Weather View 32 v70,2013-08-21 04:19:00,
2013-08-21 00:29:00,76.5,74.3,30.11,West,281,0.0,0.0,93,0.00,,,0.00,Weather View 32 v70,2013-08-21 04:29:00,
2013-08-21 00:39:00,76.3,74.1,30.10,West,281,0.0,0.0,93,0.00,,,0.00,Weather View 32 v70,2013-08-21 04:39:00,
2013-08-21 00:49:00,76.1,74.2,30.10,West,281,0.0,0.0,94,0.00,,,0.00,Weather View 32 v70,2013-08-21 04:49:00,
2013-08-21 00:54:00,76.1,74.2,30.10,West,281,0.0,0.0,94,0.00,,,0.00,Weather View 32 v70,2013-08-21 04:54:00,
2013-08-21 00:59:00,75.9,74.0,30.09,West,281,0.0,0.0,94,0.00,,,0.00,Weather View 32 v70,2013-08-21 04:59:00,
2013-08-21 01:09:00,76.3,74.8,30.09,West,281,0.0,0.0,95,0.00,,,0.00,Weather View 32 v70,2013-08-21 05:09:00,
2013-08-21 01:19:00,75.9,74.0,30.09,West,281,0.0,0.0,94,0.00,,,0.00,Weather View 32 v70,2013-08-21 05:19:00,
2013-08-21 01:29:00,75.6,73.7,30.09,West,281,0.0,0.0,94,0.00,,,0.00,Weather View 32 v70,2013-08-21 05:29:00,
2013-08-21 01:39:00,75.6,74.1,30.08,West,281,0.0,0.0,95,0.00,,,0.00,Weather View 32 v70,2013-08-21 05:39:00,
2013-08-21 01:49:00,75.4,73.5,30.09,West,281,0.0,0.0,94,0.00,,,0.00,Weather View 32 v70,2013-08-21 05:49:00,
2013-08-21 01:55:00,75.4,73.5,30.09,West,281,0.0,0.0,94,0.00,,,0.00,Weather View 32 v70,2013-08-21 05:55:00,
2013-08-21 01:59:00,75.0,73.1,30.09,West,281,0.0,0.0,94,0.00,,,0.00,Weather View 32 v70,2013-08-21 05:59:00,
2013-08-21 02:09:00,76.1,74.6,30.08,NNW,346,0.0,0.0,95,0.00,,,0.00,Weather View 32 v70,2013-08-21 06:09:00,
2013-08-21 02:19:00,74.9,73.0,30.09,NNW,346,0.0,0.0,94,0.00,,,0.00,Weather View 32 v70,2013-08-21 06:19:00,
2013-08-21 02:29:00,74.2,72.4,30.08,NNW,346,0.0,0.0,94,0.00,,,0.00,Weather View 32 v70,2013-08-21 06:29:00,
2013-08-21 02:39:00,74.4,72.6,30.08,NNW,346,0.0,0.0,94,0.00,,,0.00,Weather View 32 v70,2013-08-21 06:39:00,
2013-08-21 02:49:00,73.9,72.1,30.08,NW,321,0.0,0.0,94,0.00,,,0.00,Weather View 32 v70,2013-08-21 06:49:00,
2013-08-21 02:55:00,73.9,72.1,30.08,NW,321,0.0,0.0,94,0.00,,,0.00,Weather View 32 v70,2013-08-21 06:55:00,
2013-08-21 02:59:00,74.0,72.5,30.08,NW,319,0.0,0.0,95,0.00,,,0.00,Weather View 32 v70,2013-08-21 06:59:00,
2013-08-21 03:09:00,73.9,72.4,30.08,NW,319,0.0,0.0,95,0.00,,,0.00,Weather View 32 v70,2013-08-21 07:09:00,
2013-08-21 03:19:00,74.0,72.5,30.08,NW,319,0.0,0.0,95,0.00,,,0.00,Weather View 32 v70,2013-08-21 07:19:00,
2013-08-21 03:29:00,74.1,72.6,30.07,NW,319,0.0,0.0,95,0.00,,,0.00,Weather View 32 v70,2013-08-21 07:29:00,
2013-08-21 03:39:00,74.0,72.5,30.07,NW,319,0.0,0.0,95,0.00,,,0.00,Weather View 32 v70,2013-08-21 07:39:00,
2013-08-21 03:49:00,73.7,72.2,30.07,NW,319,0.0,0.0,95,0.00,,,0.00,Weather View 32 v70,2013-08-21 07:49:00,
2013-08-21 03:56:00,73.7,72.2,30.07,NW,319,0.0,0.0,95,0.00,,,0.00,Weather View 32 v70,2013-08-21 07:56:00,
2013-08-21 03:59:00,73.6,72.1,30.08,NW,316,0.0,0.0,95,0.00,,,0.00,Weather View 32 v70,2013-08-21 07:59:00,
2013-08-21 04:09:00,73.4,71.9,30.08,NW,316,0.0,0.0,95,0.00,,,0.00,Weather View 32 v70,2013-08-21 08:09:00,
2013-08-21 04:19:00,73.7,72.5,30.08,NW,316,0.0,0.0,96,0.00,,,0.00,Weather View 32 v70,2013-08-21 08:19:00,
2013-08-21 04:29:00,73.7,72.2,30.07,NW,316,0.0,0.0,95,0.00,,,0.00,Weather View 32 v70,2013-08-21 08:29:00,
2013-08-21 04:39:00,73.3,71.8,30.07,NW,316,0.0,0.0,95,0.00,,,0.00,Weather View 32 v70,2013-08-21 08:39:00,
2013-08-21 04:49:00,73.0,71.5,30.06,NW,316,0.0,0.0,95,0.00,,,0.00,Weather View 32 v70,2013-08-21 08:49:00,
2013-08-21 04:56:00,73.0,71.5,30.06,NW,316,0.0,0.0,95,0.00,,,0.00,Weather View 32 v70,2013-08-21 08:56:00,
2013-08-21 04:59:00,72.9,71.4,30.07,NW,316,0.0,0.0,95,0.00,,,0.00,Weather View 32 v70,2013-08-21 08:59:00,
2013-08-21 05:09:00,72.7,71.2,30.07,WNW,292,0.0,0.0,95,0.00,,,0.00,Weather View 32 v70,2013-08-21 09:09:00,
2013-08-21 05:19:00,73.1,71.9,30.07,West,279,0.0,0.0,96,0.00,,,0.00,Weather View 32 v70,2013-08-21 09:19:00,
2013-08-21 05:29:00,73.4,72.2,30.08,West,279,0.0,0.0,96,0.00,,,0.00,Weather View 32 v70,2013-08-21 09:29:00,
2013-08-21 05:39:00,73.9,72.7,30.08,West,279,0.0,0.0,96,0.00,,,0.00,Weather View 32 v70,2013-08-21 09:39:00,
2013-08-21 05:49:00,73.9,72.7,30.07,West,279,0.0,0.0,96,0.00,,,0.00,Weather View 32 v70,2013-08-21 09:49:00,
2013-08-21 05:57:00,73.9,72.7,30.07,West,279,0.0,0.0,96,0.00,,,0.00,Weather View 32 v70,2013-08-21 09:57:00,
2013-08-21 05:59:00,74.0,72.8,30.07,West,279,0.0,0.0,96,0.00,,,0.00,Weather View 32 v70,2013-08-21 09:59:00,
2013-08-21 06:09:00,74.2,73.0,30.08,West,279,0.0,0.0,96,0.00,,,0.00,Weather View 32 v70,2013-08-21 10:09:00,
2013-08-21 06:19:00,74.0,72.8,30.08,West,279,0.0,0.0,96,0.00,,,0.00,Weather View 32 v70,2013-08-21 10:19:00,
2013-08-21 06:29:00,73.8,72.6,30.09,West,279,0.0,0.0,96,0.00,,,0.00,Weather View 32 v70,2013-08-21 10:29:00,
2013-08-21 06:39:00,73.3,72.1,30.09,West,279,0.0,0.0,96,0.00,,,0.00,Weather View 32 v70,2013-08-21 10:39:00,
2013-08-21 06:49:00,73.2,72.0,30.09,West,279,0.0,0.0,96,0.00,,,0.00,Weather View 32 v70,2013-08-21 10:49:00,
2013-08-21 06:58:00,73.2,72.0,30.09,West,279,0.0,0.0,96,0.00,,,0.00,Weather View 32 v70,2013-08-21 10:58:00,
2013-08-21 07:09:00,73.3,72.1,30.10,West,279,0.0,0.0,96,0.00,,,0.00,Weather View 32 v70,2013-08-21 11:09:00,
2013-08-21 07:19:00,73.5,72.3,30.10,West,279,0.0,0.0,96,0.00,,,0.00,Weather View 32 v70,2013-08-21 11:19:00,
2013-08-21 07:29:00,73.6,72.4,30.10,West,279,0.0,0.0,96,0.00,,,0.00,Weather View 32 v70,2013-08-21 11:29:00,
2013-08-21 07:39:00,73.8,72.6,30.11,West,279,0.0,0.0,96,0.00,,,0.00,Weather View 32 v70,2013-08-21 11:39:00,
2013-08-21 07:49:00,74.3,73.1,30.11,West,279,0.0,0.0,96,0.00,,,0.00,Weather View 32 v70,2013-08-21 11:49:00,
2013-08-21 07:58:00,74.3,73.1,30.11,West,279,0.0,0.0,96,0.00,,,0.00,Weather View 32 v70,2013-08-21 11:58:00,
2013-08-21 08:09:00,75.8,74.6,30.11,West,279,0.0,0.0,96,0.00,,,0.00,Weather View 32 v70,2013-08-21 12:09:00,
2013-08-21 08:19:00,76.5,75.3,30.12,West,279,0.0,0.0,96,0.00,,,0.00,Weather View 32 v70,2013-08-21 12:19:00,
2013-08-21 08:29:00,77.1,75.9,30.12,West,279,0.0,0.0,96,0.00,,,0.00,Weather View 32 v70,2013-08-21 12:29:00,
2013-08-21 08:39:00,77.2,76.0,30.12,West,279,0.0,0.0,96,0.00,,,0.00,Weather View 32 v70,2013-08-21 12:39:00,
2013-08-21 08:49:00,77.3,76.1,30.13,West,279,0.0,0.0,96,0.00,,,0.00,Weather View 32 v70,2013-08-21 12:49:00,
2013-08-21 08:59:00,77.3,76.1,30.13,West,279,0.0,0.0,96,0.00,,,0.00,Weather View 32 v70,2013-08-21 12:59:00,
2013-08-21 09:09:00,78.2,77.0,30.13,WNW,285,0.0,0.0,96,0.00,,,0.00,Weather View 32 v70,2013-08-21 13:09:00,
2013-08-21 09:19:00,78.1,76.5,30.13,WNW,285,0.0,0.0,95,0.00,,,0.00,Weather View 32 v70,2013-08-21 13:19:00,
2013-08-21 09:29:00,77.9,76.7,30.13,WNW,285,0.0,0.0,96,0.01,,,0.01,Weather View 32 v70,2013-08-21 13:29:00,
2013-08-21 09:39:00,78.3,77.1,30.13,WNW,285,0.0,0.0,96,0.01,,,0.01,Weather View 32 v70,2013-08-21 13:39:00,
2013-08-21 09:49:00,79.6,78.4,30.13,WNW,285,0.0,0.0,96,0.01,,,0.01,Weather View 32 v70,2013-08-21 13:49:00,
2013-08-21 09:59:00,79.6,78.4,30.13,WNW,285,0.0,0.0,96,0.01,,,0.01,Weather View 32 v70,2013-08-21 13:59:00,
2013-08-21 10:09:00,81.6,78.7,30.13,WNW,286,0.0,0.0,91,0.01,,,0.01,Weather View 32 v70,2013-08-21 14:09:00,
2013-08-21 10:19:00,82.5,79.3,30.13,WNW,286,0.0,0.0,90,0.01,,,0.01,Weather View 32 v70,2013-08-21 14:19:00,
2013-08-21 10:29:00,82.8,78.9,30.14,ENE,60,0.0,0.0,88,0.00,,,0.01,Weather View 32 v70,2013-08-21 14:29:00,
2013-08-21 10:39:00,83.3,78.7,30.14,ENE,61,0.0,0.0,86,0.00,,,0.01,Weather View 32 v70,2013-08-21 14:39:00,
2013-08-21 10:49:00,83.9,78.9,30.14,NNW,340,0.0,0.0,85,0.00,,,0.01,Weather View 32 v70,2013-08-21 14:49:00,
2013-08-21 11:00:00,84.1,79.1,30.15,East,84,0.0,0.0,85,0.00,,,0.01,Weather View 32 v70,2013-08-21 15:00:00,
2013-08-21 11:09:00,83.9,79.6,30.14,East,83,0.0,0.0,87,0.00,,,0.01,Weather View 32 v70,2013-08-21 15:09:00,
2013-08-21 11:19:00,83.9,79.9,30.15,East,90,0.0,0.0,88,0.00,,,0.01,Weather View 32 v70,2013-08-21 15:19:00,
2013-08-21 11:29:00,82.5,78.9,30.14,NNE,13,0.0,0.0,89,0.02,,,0.03,Weather View 32 v70,2013-08-21 15:29:00,
2013-08-21 11:39:00,81.0,78.4,30.14,NNE,13,0.0,0.0,92,0.03,,,0.04,Weather View 32 v70,2013-08-21 15:39:00,
2013-08-21 11:49:00,81.3,78.1,30.14,SE,137,0.0,0.0,90,0.04,,,0.05,Weather View 32 v70,2013-08-21 15:49:00,
2013-08-21 11:59:00,80.5,77.3,30.14,SE,139,8.0,8.0,90,0.08,,,0.09,Weather View 32 v70,2013-08-21 15:59:00,
2013-08-21 12:00:00,80.5,77.3,30.14,SE,139,8.0,8.0,90,0.08,,,0.09,Weather View 32 v70,2013-08-21 16:00:00,
2013-08-21 12:09:00,79.4,76.2,30.14,SSE,153,0.0,9.0,90,0.09,,,0.10,Weather View 32 v70,2013-08-21 16:09:00,
2013-08-21 12:19:00,78.9,75.7,30.14,NE,37,5.0,9.0,90,0.11,,,0.12,Weather View 32 v70,2013-08-21 16:19:00,
2013-08-21 12:29:00,78.8,75.6,30.14,NE,55,2.0,9.0,90,0.10,,,0.13,Weather View 32 v70,2013-08-21 16:29:00,
2013-08-21 12:39:00,79.1,75.9,30.14,East,94,0.0,9.0,90,0.09,,,0.13,Weather View 32 v70,2013-08-21 16:39:00,
2013-08-21 12:49:00,79.2,76.0,30.14,East,94,0.0,9.0,90,0.08,,,0.13,Weather View 32 v70,2013-08-21 16:49:00,
2013-08-21 12:59:00,78.8,75.6,30.14,East,94,0.0,9.0,90,0.04,,,0.13,Weather View 32 v70,2013-08-21 16:59:00,
2013-08-21 13:01:00,78.8,75.6,30.14,East,94,0.0,9.0,90,0.04,,,0.13,Weather View 32 v70,2013-08-21 17:01:00,
2013-08-21 13:09:00,79.7,76.2,30.13,East,82,2.0,8.0,89,0.03,,,0.13,Weather View 32 v70,2013-08-21 17:09:00,
2013-08-21 13:19:00,79.9,77.0,30.14,ESE,108,1.0,8.0,91,0.01,,,0.13,Weather View 32 v70,2013-08-21 17:19:00,
2013-08-21 13:29:00,79.5,76.0,30.13,ENE,69,3.0,7.0,89,0.00,,,0.13,Weather View 32 v70,2013-08-21 17:29:00,
2013-08-21 13:39:00,79.3,75.8,30.12,NE,49,4.0,8.0,89,0.00,,,0.13,Weather View 32 v70,2013-08-21 17:39:00,
2013-08-21 13:49:00,79.2,76.0,30.11,ENE,63,3.0,9.0,90,0.00,,,0.13,Weather View 32 v70,2013-08-21 17:49:00,
2013-08-21 13:59:00,79.6,76.1,30.11,NNE,27,8.0,9.0,89,0.00,,,0.13,Weather View 32 v70,2013-08-21 17:59:00,
2013-08-21 14:02:00,79.6,76.1,30.11,NNE,27,8.0,9.0,89,0.00,,,0.13,Weather View 32 v70,2013-08-21 18:02:00,
2013-08-21 14:09:00,79.9,75.7,30.12,North,10,5.0,9.0,87,0.00,,,0.13,Weather View 32 v70,2013-08-21 18:09:00,
2013-08-21 14:19:00,80.3,75.7,30.13,ENE,71,7.0,12.0,86,0.00,,,0.13,Weather View 32 v70,2013-08-21 18:19:00,
2013-08-21 14:29:00,80.7,76.1,30.13,NE,49,1.0,13.0,86,0.00,,,0.13,Weather View 32 v70,2013-08-21 18:29:00,
2013-08-21 14:39:00,81.4,76.4,30.13,NE,35,6.0,13.0,85,0.00,,,0.13,Weather View 32 v70,2013-08-21 18:39:00,
2013-08-21 14:49:00,82.0,77.4,30.12,ENE,74,7.0,13.0,86,0.00,,,0.13,Weather View 32 v70,2013-08-21 18:49:00,
2013-08-21 14:59:00,82.5,77.2,30.11,NE,53,6.0,13.0,84,0.00,,,0.13,Weather View 32 v70,2013-08-21 18:59:00,
2013-08-21 15:03:00,82.5,77.2,30.11,NE,53,6.0,13.0,84,0.00,,,0.13,Weather View 32 v70,2013-08-21 19:03:00,
2013-08-21 15:09:00,83.0,77.6,30.11,ENE,64,7.0,13.0,84,0.00,,,0.13,Weather View 32 v70,2013-08-21 19:09:00,
2013-08-21 15:19:00,83.8,76.6,30.11,NE,34,6.0,13.0,79,0.00,,,0.13,Weather View 32 v70,2013-08-21 19:19:00,
2013-08-21 15:29:00,84.5,75.7,30.10,NE,41,6.0,12.0,75,0.00,,,0.13,Weather View 32 v70,2013-08-21 19:29:00,
2013-08-21 15:39:00,84.2,76.6,30.09,ENE,63,5.0,12.0,78,0.00,,,0.13,Weather View 32 v70,2013-08-21 19:39:00,
2013-08-21 15:49:00,84.5,76.5,30.09,North,5,8.0,12.0,77,0.00,,,0.13,Weather View 32 v70,2013-08-21 19:49:00,
2013-08-21 15:59:00,84.2,76.2,30.08,North,350,6.0,12.0,77,0.00,,,0.13,Weather View 32 v70,2013-08-21 19:59:00,
2013-08-21 16:03:00,84.2,76.2,30.08,North,350,6.0,12.0,77,0.00,,,0.13,Weather View 32 v70,2013-08-21 20:03:00,
2013-08-21 16:09:00,84.1,76.8,30.07,NNE,13,0.0,12.0,79,0.00,,,0.13,Weather View 32 v70,2013-08-21 20:09:00,
2013-08-21 16:19:00,84.1,76.5,30.07,NE,46,6.0,12.0,78,0.00,,,0.13,Weather View 32 v70,2013-08-21 20:19:00,
2013-08-21 16:29:00,84.5,76.8,30.07,ENE,61,5.0,11.0,78,0.00,,,0.13,Weather View 32 v70,2013-08-21 20:29:00,
2013-08-21 16:39:00,84.7,77.8,30.08,ENE,70,4.0,11.0,80,0.00,,,0.13,Weather View 32 v70,2013-08-21 20:39:00,
2013-08-21 16:49:00,84.8,77.1,30.07,ESE,122,3.0,11.0,78,0.00,,,0.13,Weather View 32 v70,2013-08-21 20:49:00,
2013-08-21 16:59:00,84.3,76.7,30.08,ENE,73,7.0,10.0,78,0.00,,,0.13,Weather View 32 v70,2013-08-21 20:59:00,
2013-08-21 17:04:00,84.3,76.7,30.08,ENE,73,7.0,10.0,78,0.00,,,0.13,Weather View 32 v70,2013-08-21 21:04:00,
2013-08-21 17:09:00,83.8,76.9,30.07,ENE,69,5.0,11.0,80,0.00,,,0.13,Weather View 32 v70,2013-08-21 21:09:00,
2013-08-21 17:19:00,83.4,76.9,30.07,ENE,65,4.0,11.0,81,0.00,,,0.13,Weather View 32 v70,2013-08-21 21:19:00,
2013-08-21 17:29:00,83.0,76.9,30.08,ENE,63,4.0,11.0,82,0.00,,,0.13,Weather View 32 v70,2013-08-21 21:29:00,
2013-08-21 17:39:00,82.8,77.1,30.08,ENE,58,2.0,11.0,83,0.00,,,0.13,Weather View 32 v70,2013-08-21 21:39:00,
2013-08-21 17:49:00,82.7,77.3,30.08,ENE,63,1.0,11.0,84,0.00,,,0.13,Weather View 32 v70,2013-08-21 21:49:00,
2013-08-21 17:59:00,82.9,77.2,30.08,ENE,73,3.0,11.0,83,0.00,,,0.13,Weather View 32 v70,2013-08-21 21:59:00,
2013-08-21 18:04:00,82.9,77.2,30.08,ENE,73,3.0,11.0,83,0.00,,,0.13,Weather View 32 v70,2013-08-21 22:04:00,
2013-08-21 18:09:00,82.9,77.5,30.08,NNE,28,4.0,10.0,84,0.00,,,0.13,Weather View 32 v70,2013-08-21 22:09:00,
2013-08-21 18:19:00,83.0,77.3,30.08,ENE,67,4.0,8.0,83,0.00,,,0.13,Weather View 32 v70,2013-08-21 22:19:00,
2013-08-21 18:29:00,83.0,77.3,30.08,NE,53,6.0,8.0,83,0.00,,,0.13,Weather View 32 v70,2013-08-21 22:29:00,
2013-08-21 18:39:00,82.9,77.5,30.07,NE,46,7.0,9.0,84,0.00,,,0.13,Weather View 32 v70,2013-08-21 22:39:00,
2013-08-21 18:49:00,82.7,77.3,30.07,ENE,65,5.0,9.0,84,0.00,,,0.13,Weather View 32 v70,2013-08-21 22:49:00,
2013-08-21 18:59:00,82.5,77.2,30.07,ENE,69,4.0,9.0,84,0.00,,,0.13,Weather View 32 v70,2013-08-21 22:59:00,
2013-08-21 19:05:00,82.5,77.2,30.07,ENE,69,4.0,9.0,84,0.00,,,0.13,Weather View 32 v70,2013-08-21 23:05:00,
2013-08-21 19:09:00,82.4,77.4,30.07,ENE,73,1.0,9.0,85,0.00,,,0.13,Weather View 32 v70,2013-08-21 23:09:00,
2013-08-21 19:19:00,82.0,77.4,30.07,NE,50,3.0,9.0,86,0.00,,,0.13,Weather View 32 v70,2013-08-21 23:19:00,
2013-08-21 19:29:00,82.0,77.4,30.07,NE,48,3.0,9.0,86,0.00,,,0.13,Weather View 32 v70,2013-08-21 23:29:00,
2013-08-21 19:39:00,82.0,77.4,30.08,East,84,0.0,9.0,86,0.00,,,0.13,Weather View 32 v70,2013-08-21 23:39:00,
2013-08-21 19:49:00,82.0,77.4,30.08,ENE,73,2.0,9.0,86,0.00,,,0.13,Weather View 32 v70,2013-08-21 23:49:00,
2013-08-21 19:59:00,81.8,77.5,30.08,ENE,78,0.0,5.0,87,0.00,,,0.13,Weather View 32 v70,2013-08-21 23:59:00,
2013-08-21 20:05:00,81.8,77.5,30.08,ENE,78,0.0,5.0,87,0.00,,,0.13,Weather View 32 v70,2013-08-22 00:05:00,
2013-08-21 20:09:00,81.8,77.5,30.09,ENE,78,0.0,5.0,87,0.00,,,0.13,Weather View 32 v70,2013-08-22 00:09:00,
2013-08-21 20:19:00,81.6,77.7,30.09,East,82,0.0,5.0,88,0.00,,,0.13,Weather View 32 v70,2013-08-22 00:19:00,
2013-08-21 20:29:00,81.1,77.2,30.08,East,82,0.0,4.0,88,0.00,,,0.13,Weather View 32 v70,2013-08-22 00:29:00,
2013-08-21 20:39:00,80.6,77.0,30.08,East,82,0.0,4.0,89,0.00,,,0.13,Weather View 32 v70,2013-08-22 00:39:00,
2013-08-21 20:49:00,79.8,76.6,30.08,East,82,0.0,3.0,90,0.00,,,0.13,Weather View 32 v70,2013-08-22 00:49:00,
2013-08-21 20:59:00,79.3,76.4,30.08,East,82,0.0,2.0,91,0.00,,,0.13,Weather View 32 v70,2013-08-22 00:59:00,
2013-08-21 21:06:00,79.3,76.4,30.08,East,82,0.0,2.0,91,0.00,,,0.13,Weather View 32 v70,2013-08-22 01:06:00,
2013-08-21 21:09:00,79.0,76.5,30.08,East,82,0.0,2.0,92,0.00,,,0.13,Weather View 32 v70,2013-08-22 01:09:00,
2013-08-21 21:19:00,79.4,77.2,30.08,NE,49,0.0,2.0,93,0.00,,,0.13,Weather View 32 v70,2013-08-22 01:19:00,
2013-08-21 21:29:00,80.0,77.5,30.08,NE,39,0.0,1.0,92,0.00,,,0.13,Weather View 32 v70,2013-08-22 01:29:00,
2013-08-21 21:39:00,79.9,77.4,30.08,NNE,26,0.0,1.0,92,0.00,,,0.13,Weather View 32 v70,2013-08-22 01:39:00,
2013-08-21 21:49:00,79.7,77.2,30.08,North,350,0.0,0.0,92,0.00,,,0.13,Weather View 32 v70,2013-08-22 01:49:00,
2013-08-21 21:59:00,79.6,77.1,30.09,NNE,17,0.0,0.0,92,0.00,,,0.13,Weather View 32 v70,2013-08-22 01:59:00,
2013-08-21 22:06:00,79.6,77.1,30.09,NNE,17,0.0,0.0,92,0.00,,,0.13,Weather View 32 v70,2013-08-22 02:06:00,
2013-08-21 22:09:00,79.6,77.4,30.09,NNE,27,0.0,0.0,93,0.00,,,0.13,Weather View 32 v70,2013-08-22 02:09:00,
2013-08-21 22:19:00,79.6,77.4,30.08,NE,34,0.0,0.0,93,0.00,,,0.13,Weather View 32 v70,2013-08-22 02:19:00,
2013-08-21 22:29:00,79.7,77.5,30.09,NE,46,0.0,0.0,93,0.00,,,0.13,Weather View 32 v70,2013-08-22 02:29:00,
2013-08-21 22:39:00,79.6,77.7,30.09,NE,41,0.0,0.0,94,0.00,,,0.13,Weather View 32 v70,2013-08-22 02:39:00,
2013-08-21 22:49:00,79.6,77.7,30.09,NE,44,0.0,0.0,94,0.00,,,0.13,Weather View 32 v70,2013-08-22 02:49:00,
2013-08-21 22:59:00,79.5,77.6,30.09,NE,50,0.0,0.0,94,0.00,,,0.13,Weather View 32 v70,2013-08-22 02:59:00,
2013-08-21 23:07:00,79.5,77.6,30.09,NE,50,0.0,0.0,94,0.00,,,0.13,Weather View 32 v70,2013-08-22 03:07:00,
2013-08-21 23:09:00,79.6,77.7,30.09,NE,39,0.0,0.0,94,0.00,,,0.13,Weather View 32 v70,2013-08-22 03:09:00,
2013-08-21 23:19:00,79.5,77.6,30.10,NE,39,0.0,0.0,94,0.00,,,0.13,Weather View 32 v70,2013-08-22 03:19:00,
2013-08-21 23:29:00,79.5,77.6,30.10,NE,40,0.0,0.0,94,0.00,,,0.13,Weather View 32 v70,2013-08-22 03:29:00,
2013-08-21 23:39:00,79.6,77.7,30.10,NE,44,0.0,0.0,94,0.00,,,0.13,Weather View 32 v70,2013-08-22 03:39:00,
2013-08-21 23:49:00,79.6,77.7,30.10,NE,36,0.0,0.0,94,0.00,,,0.13,Weather View 32 v70,2013-08-22 03:49:00,
2013-08-21 23:59:00,79.6,77.4,30.10,NE,35,0.0,0.0,93,0.00,,,0.00,Weather View 32 v70,2013-08-22 03:59:00,